Time;durP1;ratioP1;P1;durP2;ratioP2;P2;SDS_P1;SDS_P2;PMS_P1;PMS_P2;Temp;Humidity;BMP_temperature;BMP_pressure;BME280_temperature;BME280_humidity;BME280_pressure;Samples;Min_cycle;Max_cycle;Signal;HPM_P1;HPM_P2
2022/09/09 00:02:15;;;;;;;2.63;1.50;;;14.70;99.90;;;;;;5097357;28;20188;-83
2022/09/09 00:04:41;;;;;;;1.20;1.10;;;14.70;99.90;;;;;;5081690;28;20180;-84
2022/09/09 00:07:14;;;;;;;3.40;1.40;;;14.70;99.90;;;;;;5080691;28;20620;-84
2022/09/09 00:10:05;;;;;;;2.97;1.60;;;14.70;99.90;;;;;;5081373;28;20187;-84
2022/09/09 00:13:15;;;;;;;3.70;1.50;;;14.70;99.90;;;;;;5080504;28;20200;-85
2022/09/09 00:15:57;;;;;;;1.97;1.27;;;14.70;99.90;;;;;;5099122;28;20181;-84
2022/09/09 00:18:44;;;;;;;3.90;1.77;;;14.60;99.90;;;;;;5080638;28;20198;-84
2022/09/09 00:21:15;;;;;;;5.07;1.60;;;14.60;99.90;;;;;;5083182;28;20211;-82
2022/09/09 00:23:50;;;;;;;2.80;1.50;;;14.60;99.90;;;;;;5082189;28;20316;-84
2022/09/09 00:26:30;;;;;;;2.10;1.33;;;14.60;99.90;;;;;;5100270;28;20252;-83
2022/09/09 00:28:55;;;;;;;1.50;1.40;;;14.60;99.90;;;;;;5082440;28;20171;-84
2022/09/09 00:31:26;;;;;;;3.20;1.33;;;14.50;99.90;;;;;;5082903;28;20559;-83
2022/09/09 00:33:52;;;;;;;2.30;1.60;;;14.50;99.90;;;;;;5083964;28;20176;-85
2022/09/09 00:36:25;;;;;;;3.87;1.87;;;14.50;99.90;;;;;;5102678;28;20172;-84
2022/09/09 00:38:59;;;;;;;2.37;1.57;;;14.40;99.90;;;;;;5103209;28;20153;-82
2022/09/09 00:41:31;;;;;;;2.83;1.50;;;14.40;99.90;;;;;;5105362;28;20596;-84
2022/09/09 00:44:03;;;;;;;3.97;2.10;;;14.30;99.90;;;;;;5083029;28;20267;-84
2022/09/09 00:47:07;;;;;;;1.50;1.40;;;14.30;99.90;;;;;;5098783;28;20184;-85
2022/09/09 00:49:55;;;;;;;2.83;1.50;;;14.30;99.90;;;;;;5080085;28;20176;-84
2022/09/09 00:52:50;;;;;;;4.77;1.40;;;14.30;99.90;;;;;;5080909;28;20277;-84
2022/09/09 00:55:49;;;;;;;2.67;1.70;;;14.30;99.90;;;;;;5061810;28;20670;-87
2022/09/09 00:58:14;;;;;;;4.00;1.70;;;14.40;99.90;;;;;;5080822;28;20529;-84
2022/09/09 01:00:51;;;;;;;2.07;1.77;;;14.40;99.90;;;;;;5081031;28;20199;-84
2022/09/09 01:03:53;;;;;;;4.70;1.57;;;14.40;99.90;;;;;;5080645;28;20610;-84
2022/09/09 01:06:32;;;;;;;2.33;1.43;;;14.40;99.90;;;;;;5047361;28;20207;-85
2022/09/09 01:09:28;;;;;;;1.83;1.43;;;14.40;99.90;;;;;;5081439;28;20160;-85
2022/09/09 01:12:24;;;;;;;3.80;1.60;;;14.40;99.90;;;;;;5081578;28;20195;-85
2022/09/09 01:14:54;;;;;;;5.53;1.60;;;14.40;99.90;;;;;;5079704;28;20218;-84
2022/09/09 01:17:38;;;;;;;3.20;1.40;;;14.40;99.90;;;;;;5080570;28;20172;-84
2022/09/09 01:20:19;;;;;;;2.40;1.87;;;14.40;99.90;;;;;;5078084;28;20172;-84
2022/09/09 01:22:53;;;;;;;3.07;1.70;;;14.40;99.90;;;;;;5078158;28;20630;-84
2022/09/09 01:25:25;;;;;;;4.43;1.60;;;14.40;99.90;;;;;;5095728;28;20164;-85
2022/09/09 01:27:55;;;;;;;1.80;1.70;;;14.40;99.90;;;;;;5077301;28;20238;-83
2022/09/09 01:30:22;;;;;;;4.00;1.80;;;14.40;99.90;;;;;;5077496;28;20167;-84
2022/09/09 01:32:51;;;;;;;1.53;1.40;;;14.40;99.90;;;;;;5096280;28;20168;-83
2022/09/09 01:35:58;;;;;;;1.90;1.70;;;14.40;99.90;;;;;;5078575;28;20168;-85
2022/09/09 01:38:25;;;;;;;1.97;1.43;;;14.40;99.90;;;;;;5023765;28;20577;-84
2022/09/09 01:40:54;;;;;;;2.77;1.67;;;14.40;99.90;;;;;;5077946;28;20537;-84
2022/09/09 01:43:24;;;;;;;2.93;1.37;;;14.40;99.90;;;;;;5077594;28;20172;-85
2022/09/09 01:45:54;;;;;;;1.77;1.30;;;14.30;99.90;;;;;;5096027;28;20192;-86
2022/09/09 01:48:22;;;;;;;2.23;1.33;;;14.30;99.90;;;;;;5077798;28;20201;-84
2022/09/09 01:50:48;;;;;;;2.43;1.70;;;14.30;99.90;;;;;;5078335;28;20199;-84
2022/09/09 01:53:16;;;;;;;1.90;1.70;;;14.30;99.90;;;;;;5077436;28;20172;-84
2022/09/09 01:55:53;;;;;;;2.90;1.43;;;14.30;99.90;;;;;;5077640;28;20207;-84
2022/09/09 01:58:52;;;;;;;2.53;1.43;;;14.20;99.90;;;;;;5077190;28;20535;-85
2022/09/09 02:01:28;;;;;;;4.00;1.53;;;14.10;99.90;;;;;;5076799;28;20196;-83
2022/09/09 02:03:57;;;;;;;3.97;1.43;;;14.10;99.90;;;;;;5077293;28;20160;-84
2022/09/09 02:06:38;;;;;;;1.80;1.60;;;14.20;99.90;;;;;;5097592;28;20192;-84
2022/09/09 02:09:06;;;;;;;2.40;1.47;;;14.20;99.90;;;;;;5079275;28;20213;-85
2022/09/09 02:11:33;;;;;;;1.60;1.40;;;14.20;99.90;;;;;;5078752;28;20654;-85
2022/09/09 02:14:12;;;;;;;2.40;1.50;;;14.20;99.90;;;;;;5096627;28;20161;-84
2022/09/09 02:16:54;;;;;;;2.53;1.40;;;14.20;99.90;;;;;;5076945;28;20168;-85
2022/09/09 02:19:48;;;;;;;1.87;1.60;;;14.20;99.90;;;;;;5076899;28;20179;-84
2022/09/09 02:22:17;;;;;;;9.33;1.63;;;14.30;99.90;;;;;;5092315;28;20306;-84
2022/09/09 02:24:45;;;;;;;3.30;1.70;;;14.30;99.90;;;;;;5076976;28;20297;-84
2022/09/09 02:27:13;;;;;;;2.90;1.40;;;14.30;99.90;;;;;;5076800;28;20700;-84
2022/09/09 02:29:41;;;;;;;3.17;1.57;;;14.30;99.90;;;;;;5094958;28;20168;-84
2022/09/09 02:32:12;;;;;;;2.43;1.70;;;14.30;99.90;;;;;;5076704;28;20196;-84
2022/09/09 02:34:43;;;;;;;2.07;1.40;;;14.30;99.90;;;;;;5095181;28;20625;-84
2022/09/09 02:37:10;;;;;;;2.90;1.50;;;14.30;99.90;;;;;;5094567;28;20163;-83
2022/09/09 02:39:36;;;;;;;3.90;1.50;;;14.30;99.90;;;;;;5076587;28;20180;-85
2022/09/09 02:42:04;;;;;;;2.90;1.33;;;14.20;99.90;;;;;;5076363;28;20204;-85
2022/09/09 02:44:29;;;;;;;3.57;1.50;;;14.20;99.90;;;;;;5076573;28;20645;-86
2022/09/09 02:47:29;;;;;;;6.47;1.67;;;14.20;99.90;;;;;;5094785;28;20282;-85
2022/09/09 06:05:02;;;;;;;2.07;1.00;;;14.90;99.90;;;;;;5115553;27;20279;-86
2022/09/09 06:07:28;;;;;;;6.80;1.33;;;15.00;99.90;;;;;;5113313;28;20235;-86
2022/09/09 06:09:54;;;;;;;1.30;1.10;;;15.10;99.90;;;;;;5114357;28;20557;-86
2022/09/09 06:12:20;;;;;;;2.93;1.17;;;15.20;99.90;;;;;;5113335;28;20703;-85
2022/09/09 06:14:46;;;;;;;4.67;1.10;;;15.30;99.90;;;;;;5115078;28;20164;-85
2022/09/09 06:17:11;;;;;;;3.30;1.10;;;15.40;99.90;;;;;;5113553;28;20236;-85
2022/09/09 06:19:37;;;;;;;4.43;1.23;;;15.50;99.90;;;;;;5114142;28;20519;-85
2022/09/09 06:22:03;;;;;;;1.77;1.20;;;15.50;99.90;;;;;;5114101;28;20665;-85
2022/09/09 06:24:30;;;;;;;2.80;1.50;;;15.60;99.90;;;;;;5113355;28;20200;-85
2022/09/09 06:26:57;;;;;;;4.07;1.13;;;15.70;99.90;;;;;;5114542;28;20617;-86
2022/09/09 06:29:22;;;;;;;2.53;1.10;;;15.70;99.90;;;;;;5114124;28;20168;-86
2022/09/09 06:31:48;;;;;;;2.23;1.07;;;15.70;99.90;;;;;;5113826;28;20183;-85
2022/09/09 06:34:15;;;;;;;5.00;1.40;;;;;;;;;;5113134;28;20176;-84
2022/09/09 06:36:40;;;;;;;3.13;1.00;;;15.80;99.90;;;;;;5114740;28;20197;-82
2022/09/09 06:39:08;;;;;;;2.70;0.90;;;15.80;99.90;;;;;;5112666;28;20274;-85
2022/09/09 06:41:34;;;;;;;2.63;1.27;;;15.80;99.90;;;;;;5114098;28;20212;-85
2022/09/09 06:44:00;;;;;;;3.27;1.50;;;15.80;99.90;;;;;;5113461;28;20695;-84
2022/09/09 06:46:29;;;;;;;2.33;1.00;;;15.80;99.90;;;;;;5113126;28;20176;-84
2022/09/09 06:48:58;;;;;;;4.00;0.90;;;15.80;99.90;;;;;;5114437;28;20179;-84
2022/09/09 06:51:33;;;;;;;3.47;1.10;;;15.90;99.90;;;;;;5112504;28;20676;-84
2022/09/09 06:54:02;;;;;;;5.40;1.20;;;15.90;99.90;;;;;;5112706;28;20243;-84
2022/09/09 06:56:29;;;;;;;2.17;1.20;;;15.90;99.90;;;;;;5113713;28;20550;-86
2022/09/09 06:59:03;;;;;;;2.13;0.87;;;15.90;99.90;;;;;;5114130;28;20171;-85
2022/09/09 07:01:37;;;;;;;3.17;1.10;;;15.80;99.90;;;;;;5113581;28;20196;-85
2022/09/09 07:04:07;;;;;;;2.10;0.80;;;15.80;99.90;;;;;;5114861;28;20687;-86
2022/09/09 07:06:35;;;;;;;2.20;1.10;;;15.80;99.90;;;;;;5115889;28;20285;-85
2022/09/09 07:09:04;;;;;;;1.33;0.93;;;15.80;99.90;;;;;;5115702;28;20233;-86
2022/09/09 07:11:32;;;;;;;1.67;0.83;;;15.80;99.90;;;;;;5114938;28;20222;-85
2022/09/09 07:13:59;;;;;;;1.60;1.17;;;15.80;99.90;;;;;;5115605;28;20190;-86
2022/09/09 07:16:27;;;;;;;1.60;0.80;;;15.80;99.90;;;;;;5100105;28;20180;-84
2022/09/09 07:18:56;;;;;;;1.00;0.70;;;15.80;99.90;;;;;;5101536;28;20172;-84
2022/09/09 07:21:27;;;;;;;1.97;1.00;;;15.90;99.90;;;;;;5102636;28;20200;-84
2022/09/09 07:23:53;;;;;;;0.90;0.83;;;16.00;99.90;;;;;;5104105;28;20200;-84
2022/09/09 07:26:22;;;;;;;2.83;0.80;;;16.10;99.90;;;;;;5098292;28;20259;-85
2022/09/09 07:28:49;;;;;;;2.00;0.80;;;16.10;99.90;;;;;;5096436;28;20169;-83
2022/09/09 07:31:21;;;;;;;6.80;0.80;;;16.10;99.90;;;;;;5097700;28;20590;-84
2022/09/09 07:33:47;;;;;;;2.30;1.00;;;16.20;99.90;;;;;;5096636;28;20169;-84
2022/09/09 07:36:21;;;;;;;3.47;1.03;;;16.20;99.90;;;;;;5096909;28;20710;-84
2022/09/09 07:38:54;;;;;;;2.60;1.10;;;16.20;99.90;;;;;;5097748;28;20179;-84
2022/09/09 07:41:22;;;;;;;1.30;0.80;;;16.20;99.90;;;;;;5098050;28;20270;-84
2022/09/09 07:43:49;;;;;;;2.83;1.10;;;16.20;99.90;;;;;;5097729;28;20200;-84
2022/09/09 07:46:17;;;;;;;2.80;0.90;;;16.20;99.90;;;;;;5096949;28;20594;-85
2022/09/09 07:48:54;;;;;;;1.40;0.70;;;16.30;99.90;;;;;;5096862;28;20177;-84
2022/09/09 07:51:29;;;;;;;4.17;0.80;;;16.30;99.90;;;;;;5095914;28;20196;-83
2022/09/09 07:54:04;;;;;;;6.50;0.90;;;16.30;99.90;;;;;;5097428;28;20156;-86
2022/09/09 07:56:31;;;;;;;2.73;0.80;;;16.30;99.90;;;;;;5095463;28;20326;-86
2022/09/09 07:58:58;;;;;;;1.63;0.83;;;16.20;99.90;;;;;;5095427;28;20532;-84
2022/09/09 08:01:28;;;;;;;1.80;0.67;;;16.20;99.90;;;;;;5096734;28;20635;-84
2022/09/09 08:04:01;;;;;;;6.57;1.07;;;16.20;99.90;;;;;;5095458;28;20224;-85
2022/09/09 08:06:33;;;;;;;1.97;0.80;;;16.20;99.90;;;;;;5095954;28;20169;-86
2022/09/09 08:08:59;;;;;;;1.60;1.00;;;16.20;99.90;;;;;;5096819;28;20157;-84
2022/09/09 08:11:26;;;;;;;2.73;0.67;;;16.30;99.90;;;;;;5095200;28;20201;-82
2022/09/09 08:13:52;;;;;;;2.87;0.90;;;16.30;99.90;;;;;;5095550;28;20276;-83
2022/09/09 08:16:24;;;;;;;4.87;0.63;;;16.30;99.90;;;;;;5095734;28;20645;-84
2022/09/09 08:18:51;;;;;;;1.17;0.60;;;16.30;99.90;;;;;;5096711;28;20172;-84
2022/09/09 08:21:24;;;;;;;1.00;0.80;;;16.30;99.90;;;;;;5095396;28;20636;-85
2022/09/09 08:23:52;;;;;;;1.43;0.80;;;16.30;99.90;;;;;;5096699;28;20671;-82
2022/09/09 08:26:21;;;;;;;2.23;0.67;;;16.20;99.90;;;;;;5095066;28;20637;-85
2022/09/09 08:28:51;;;;;;;2.07;0.87;;;16.20;99.90;;;;;;5095779;28;20176;-84
2022/09/09 08:31:21;;;;;;;1.43;0.70;;;16.20;99.90;;;;;;5095558;28;20201;-86
2022/09/09 08:33:47;;;;;;;4.77;0.90;;;16.10;99.90;;;;;;5095927;28;20632;-85
2022/09/09 08:36:18;;;;;;;1.03;0.60;;;16.10;99.90;;;;;;5096974;28;20184;-85
2022/09/09 08:38:47;;;;;;;2.50;1.20;;;16.20;99.90;;;;;;5095264;28;20660;-85
2022/09/09 08:41:31;;;;;;;2.00;0.87;;;16.30;99.90;;;;;;5097034;28;20288;-85
2022/09/09 08:44:18;;;;;;;0.97;0.80;;;16.30;99.90;;;;;;5095486;28;20204;-84
2022/09/09 08:46:51;;;;;;;0.70;0.70;;;16.30;99.90;;;;;;5096100;28;20271;-85
2022/09/09 08:49:41;;;;;;;1.57;0.70;;;16.30;99.90;;;;;;5095000;28;20162;-85
2022/09/09 08:52:19;;;;;;;2.23;0.90;;;16.30;99.90;;;;;;5096143;28;20195;-85
2022/09/09 08:54:47;;;;;;;3.17;1.00;;;16.30;99.90;;;;;;5096198;28;20163;-85
2022/09/09 08:57:28;;;;;;;1.60;0.70;;;16.30;99.90;;;;;;5094706;28;20178;-85
2022/09/09 08:59:55;;;;;;;1.00;0.70;;;16.20;99.90;;;;;;5095768;28;20161;-84
2022/09/09 09:02:44;;;;;;;1.73;1.00;;;16.30;99.90;;;;;;5094306;28;20204;-84
2022/09/09 09:05:24;;;;;;;2.33;0.90;;;16.40;99.90;;;;;;5095988;28;20242;-84
2022/09/09 09:08:12;;;;;;;4.13;0.77;;;16.40;99.90;;;;;;5096058;28;20157;-83
2022/09/09 09:11:00;;;;;;;1.53;0.70;;;16.40;99.90;;;;;;5097079;28;20158;-85
2022/09/09 09:13:54;;;;;;;2.00;0.70;;;16.40;99.90;;;;;;5097524;28;20154;-85
2022/09/09 09:16:40;;;;;;;1.50;0.80;;;16.40;99.90;;;;;;5096524;28;20165;-84
2022/09/09 09:19:12;;;;;;;2.20;0.90;;;16.40;99.90;;;;;;5097772;28;20157;-85
2022/09/09 09:21:59;;;;;;;2.20;0.77;;;16.50;99.90;;;;;;5097266;28;20234;-84
2022/09/09 09:24:40;;;;;;;2.63;1.00;;;16.50;99.90;;;;;;5097310;28;21094;-85
2022/09/09 09:27:14;;;;;;;2.37;0.80;;;16.40;99.90;;;;;;5098989;28;20179;-84
2022/09/09 09:29:41;;;;;;;2.13;0.90;;;16.30;99.90;;;;;;5101460;28;20662;-84
2022/09/09 09:32:14;;;;;;;1.27;0.83;;;16.30;99.90;;;;;;5098450;28;20195;-84
2022/09/09 09:34:39;;;;;;;1.40;0.70;;;16.30;99.90;;;;;;5098612;28;20641;-83
2022/09/09 09:37:29;;;;;;;2.70;1.20;;;16.20;99.90;;;;;;5098884;28;20173;-84
2022/09/09 09:46:26;;;;;;;3.43;1.03;;;16.10;99.90;;;;;;5135117;27;20271;-85
2022/09/09 09:48:59;;;;;;;3.73;1.00;;;16.10;99.90;;;;;;5115470;28;20228;-84
2022/09/09 09:51:26;;;;;;;2.33;1.00;;;16.20;99.90;;;;;;5121586;28;20261;-84
2022/09/09 09:53:53;;;;;;;1.77;0.83;;;16.20;99.90;;;;;;5134925;27;20160;-85
2022/09/09 09:56:28;;;;;;;2.80;1.10;;;16.30;99.90;;;;;;5133687;28;20666;-85
2022/09/09 09:58:54;;;;;;;2.30;0.70;;;16.30;99.90;;;;;;5134060;28;20539;-84
2022/09/09 10:01:29;;;;;;;4.70;1.20;;;16.30;99.90;;;;;;5133587;28;20215;-84
2022/09/09 10:03:59;;;;;;;1.33;0.87;;;16.30;99.90;;;;;;5133044;28;20702;-85
2022/09/09 10:06:33;;;;;;;2.63;0.83;;;16.40;99.90;;;;;;5136629;27;20538;-85
2022/09/09 10:09:01;;;;;;;2.83;1.03;;;16.30;99.90;;;;;;5144665;28;20171;-83
2022/09/09 10:11:44;;;;;;;2.23;1.10;;;16.30;99.90;;;;;;5144770;28;20197;-81
2022/09/09 10:14:14;;;;;;;3.37;1.00;;;16.30;99.90;;;;;;5148905;27;20155;-81
2022/09/09 10:17:00;;;;;;;1.70;0.80;;;16.20;99.90;;;;;;5148767;28;20242;-84
2022/09/09 10:19:33;;;;;;;6.73;0.97;;;16.20;99.90;;;;;;5142026;27;20165;-83
2022/09/09 10:22:27;;;;;;;2.00;0.93;;;16.10;99.90;;;;;;5136557;27;20692;-83
2022/09/09 10:25:11;;;;;;;3.40;1.10;;;16.00;99.90;;;;;;5136751;27;20187;-83
2022/09/09 10:28:00;;;;;;;2.43;1.20;;;15.90;99.90;;;;;;5135239;28;20175;-83
2022/09/09 10:31:15;;;;;;;1.67;0.70;;;15.80;99.90;;;;;;5135319;28;20648;-83
2022/09/09 10:33:58;;;;;;;2.87;0.90;;;15.70;99.90;;;;;;5127094;28;20183;-82
2022/09/09 10:36:26;;;;;;;2.00;0.90;;;15.80;99.90;;;;;;5136804;28;20581;-83
2022/09/09 10:39:11;;;;;;;3.57;1.00;;;15.70;99.90;;;;;;5136342;27;20654;-83
2022/09/09 10:41:55;;;;;;;1.67;0.80;;;15.80;99.90;;;;;;5136761;27;20271;-81
2022/09/09 10:44:30;;;;;;;3.80;0.90;;;15.80;99.90;;;;;;5135205;28;20203;-84
2022/09/09 10:47:23;;;;;;;3.67;1.00;;;15.90;99.90;;;;;;5135244;28;20181;-82
2022/09/09 10:50:21;;;;;;;2.80;1.30;;;16.00;99.90;;;;;;5135444;28;20167;-83
2022/09/09 10:53:15;;;;;;;2.10;0.90;;;16.10;99.90;;;;;;5135160;28;20178;-81
2022/09/09 10:55:57;;;;;;;2.10;1.00;;;16.20;99.90;;;;;;5133904;28;20180;-84
2022/09/09 10:58:26;;;;;;;2.47;1.10;;;16.30;99.90;;;;;;5105602;28;20191;-86
2022/09/09 11:00:56;;;;;;;4.53;1.00;;;16.20;99.90;;;;;;5122538;27;20218;-82
2022/09/09 11:03:25;;;;;;;4.63;1.07;;;16.20;99.90;;;;;;5122221;28;20537;-83
2022/09/09 11:05:59;;;;;;;2.53;0.93;;;16.20;99.90;;;;;;5122834;28;20199;-82
2022/09/09 11:08:28;;;;;;;2.50;1.03;;;16.20;99.90;;;;;;5121104;28;20175;-83
2022/09/09 11:10:58;;;;;;;3.67;1.03;;;16.30;99.90;;;;;;5107628;28;20710;-83
2022/09/09 11:13:43;;;;;;;2.70;1.00;;;16.40;99.90;;;;;;5124950;28;20181;-83
2022/09/09 11:16:26;;;;;;;1.50;0.93;;;16.30;99.90;;;;;;5121784;28;20174;-87
2022/09/09 11:18:57;;;;;;;2.03;0.97;;;16.40;99.90;;;;;;5120092;28;20180;-84
2022/09/09 11:21:30;;;;;;;3.20;1.00;;;16.60;99.90;;;;;;5121101;28;20204;-82
2022/09/09 11:24:01;;;;;;;2.80;1.23;;;16.60;99.90;;;;;;5121411;28;20248;-84
2022/09/09 11:26:38;;;;;;;2.83;1.20;;;16.90;99.90;;;;;;5122678;28;20202;-86
2022/09/09 11:29:14;;;;;;;2.07;1.10;;;16.80;99.90;;;;;;5121131;28;20168;-83
2022/09/09 11:31:52;;;;;;;2.90;1.20;;;16.80;99.90;;;;;;5121926;28;20201;-84
2022/09/09 11:34:35;;;;;;;1.83;1.03;;;16.90;99.90;;;;;;5121626;28;20163;-85
2022/09/09 11:37:07;;;;;;;2.50;1.00;;;17.00;99.90;;;;;;5121806;28;20180;-82
2022/09/09 11:39:42;;;;;;;4.50;1.23;;;17.00;99.90;;;;;;5121955;28;20183;-85
2022/09/09 11:42:14;;;;;;;1.97;0.97;;;17.00;99.90;;;;;;5120553;28;20207;-85
2022/09/09 11:44:41;;;;;;;1.70;1.00;;;17.00;99.90;;;;;;5120561;28;20209;-83
2022/09/09 11:47:30;;;;;;;2.70;1.27;;;16.90;99.90;;;;;;5122360;28;20169;-85
2022/09/09 11:50:08;;;;;;;2.93;1.20;;;16.80;99.90;;;;;;5121496;28;20255;-83
2022/09/09 11:52:48;;;;;;;1.20;0.80;;;16.80;99.90;;;;;;5119565;28;20261;-84
2022/09/09 11:55:34;;;;;;;4.83;1.20;;;16.80;99.90;;;;;;5117419;28;20643;-85
2022/09/09 11:58:01;;;;;;;2.60;1.17;;;16.90;99.90;;;;;;5116164;28;20254;-85
2022/09/09 12:00:40;;;;;;;3.37;1.13;;;16.90;99.90;;;;;;5116218;28;20236;-86
2022/09/09 12:03:25;;;;;;;2.00;1.00;;;16.90;99.90;;;;;;5115810;28;20267;-86
2022/09/09 12:05:53;;;;;;;4.07;1.20;;;17.00;99.90;;;;;;5118481;28;20199;-83
2022/09/09 12:08:27;;;;;;;1.57;1.00;;;17.10;99.90;;;;;;5116166;28;20172;-84
2022/09/09 12:10:59;;;;;;;3.00;1.00;;;17.30;99.90;;;;;;5115281;28;20193;-82
2022/09/09 12:13:26;;;;;;;1.87;1.10;;;17.30;99.90;;;;;;5115914;28;20180;-83
2022/09/09 12:15:55;;;;;;;2.03;0.90;;;17.40;99.90;;;;;;5117670;28;20694;-85
2022/09/09 12:18:31;;;;;;;3.43;1.37;;;17.50;99.90;;;;;;5117778;28;20172;-85
2022/09/09 12:21:28;;;;;;;2.73;1.10;;;18.40;99.90;;;;;;5116903;28;20188;-84
2022/09/09 12:24:10;;;;;;;1.33;0.90;;;18.70;99.90;;;;;;5116039;28;20169;-82
2022/09/09 12:26:47;;;;;;;2.23;1.20;;;21.10;99.90;;;;;;5117244;28;20559;-82
2022/09/09 12:29:18;;;;;;;3.03;1.07;;;21.10;99.90;;;;;;5115190;28;20185;-84
2022/09/09 12:31:58;;;;;;;2.67;1.07;;;22.00;99.90;;;;;;5117463;28;20190;-83
2022/09/09 12:34:36;;;;;;;3.70;1.30;;;22.10;99.90;;;;;;5117346;28;20204;-84
2022/09/09 12:37:42;;;;;;;3.87;1.17;;;21.50;99.90;;;;;;5115329;28;20267;-84
2022/09/09 12:40:29;;;;;;;2.97;1.20;;;20.20;99.90;;;;;;5114416;28;20183;-85
2022/09/09 12:42:55;;;;;;;3.20;1.17;;;20.20;99.90;;;;;;5116441;28;20199;-82
2022/09/09 12:45:27;;;;;;;1.77;1.20;;;19.70;99.90;;;;;;5116918;28;20196;-87
2022/09/09 12:48:11;;;;;;;4.00;1.43;;;19.50;99.90;;;;;;5117656;28;20617;-83
2022/09/09 12:50:45;;;;;;;1.07;0.80;;;19.60;99.90;;;;;;5116806;28;20175;-85
2022/09/09 12:53:18;;;;;;;4.83;1.43;;;19.60;99.90;;;;;;5117146;28;20168;-85
2022/09/09 12:56:08;;;;;;;2.33;1.20;;;19.70;99.90;;;;;;5117384;28;20200;-85
2022/09/09 12:58:35;;;;;;;1.63;0.90;;;19.80;99.90;;;;;;5115747;28;20168;-87
2022/09/09 13:01:06;;;;;;;5.33;1.13;;;19.90;99.90;;;;;;5115555;28;20196;-86
2022/09/09 13:03:43;;;;;;;2.33;1.10;;;19.90;99.90;;;;;;5115946;28;20182;-85
2022/09/09 13:06:19;;;;;;;3.10;1.30;;;20.20;99.90;;;;;;5115966;28;20194;-86
2022/09/09 13:08:45;;;;;;;4.43;1.20;;;20.60;99.90;;;;;;5117642;28;20209;-85
2022/09/09 13:11:16;;;;;;;3.30;1.23;;;21.50;99.90;;;;;;5125176;28;20247;-84
2022/09/09 13:13:43;;;;;;;2.37;0.90;;;21.60;99.90;;;;;;5127345;28;20175;-81
2022/09/09 13:16:26;;;;;;;2.47;1.10;;;22.00;99.90;;;;;;5124974;28;20175;-82
2022/09/09 13:18:52;;;;;;;2.30;1.10;;;22.00;99.90;;;;;;5127548;28;20548;-82
2022/09/09 13:21:19;;;;;;;2.07;0.97;;;21.90;99.90;;;;;;5116459;28;20196;-83
2022/09/09 13:23:50;;;;;;;1.87;1.00;;;21.60;99.90;;;;;;5117411;28;20505;-86
2022/09/09 13:26:26;;;;;;;2.83;1.07;;;20.90;99.90;;;;;;5118188;28;20196;-84
2022/09/09 13:28:53;;;;;;;3.23;1.20;;;20.40;99.90;;;;;;5119036;28;20206;-84
2022/09/09 13:31:22;;;;;;;2.93;1.30;;;19.50;99.90;;;;;;5120460;28;20191;-86
2022/09/09 13:33:48;;;;;;;1.57;0.90;;;19.30;99.90;;;;;;5120460;28;20532;-84
2022/09/09 13:36:14;;;;;;;2.87;1.20;;;19.00;99.90;;;;;;5115322;28;20176;-83
2022/09/09 13:38:52;;;;;;;3.07;1.00;;;18.60;99.90;;;;;;5113670;28;20179;-84
2022/09/09 13:41:23;;;;;;;2.93;1.10;;;18.20;99.90;;;;;;5114300;28;20202;-84
2022/09/09 13:43:50;;;;;;;2.10;0.90;;;18.20;99.90;;;;;;5114519;28;20182;-84
2022/09/09 13:46:40;;;;;;;4.67;1.13;;;18.10;99.90;;;;;;5114658;28;20207;-84
2022/09/09 13:49:09;;;;;;;3.37;1.13;;;17.90;99.90;;;;;;5115071;28;20262;-85
2022/09/09 13:51:43;;;;;;;2.10;1.00;;;18.60;99.90;;;;;;5114569;28;20197;-85
2022/09/09 13:54:10;;;;;;;3.47;1.30;;;19.40;99.90;;;;;;5115334;28;20506;-85
2022/09/09 13:56:38;;;;;;;3.43;1.00;;;20.40;99.90;;;;;;5114165;28;20654;-84
2022/09/09 13:59:05;;;;;;;2.10;1.07;;;21.40;99.90;;;;;;5116173;28;20194;-86
2022/09/09 14:01:33;;;;;;;1.40;0.90;;;21.00;99.90;;;;;;5116277;28;20188;-82
2022/09/09 14:03:58;;;;;;;3.50;1.30;;;20.70;99.90;;;;;;5116804;28;20183;-83
2022/09/09 14:06:24;;;;;;;2.77;1.03;;;20.10;99.90;;;;;;5114464;28;20717;-85
2022/09/09 14:08:50;;;;;;;3.00;1.00;;;19.40;99.90;;;;;;5116156;28;20210;-83
2022/09/09 14:11:17;;;;;;;2.17;1.27;;;19.00;99.90;;;;;;5116641;28;20191;-84
2022/09/09 14:13:43;;;;;;;4.20;0.80;;;;;;;;;;5115894;28;20209;-85
2022/09/09 14:16:09;;;;;;;2.60;1.10;;;;;;;;;;5116851;28;20271;-84
2022/09/09 14:18:37;;;;;;;2.10;1.10;;;19.10;99.90;;;;;;5117046;28;20168;-84
2022/09/09 14:21:02;;;;;;;4.30;1.17;;;19.10;99.90;;;;;;5116871;28;20194;-85
2022/09/09 14:23:29;;;;;;;1.97;0.77;;;19.10;99.90;;;;;;5115995;28;20543;-83
2022/09/09 14:25:55;;;;;;;4.27;0.93;;;;;;;;;;5116515;28;20629;-85
2022/09/09 14:28:21;;;;;;;7.37;1.37;;;;;;;;;;5117144;28;20533;-85
2022/09/09 14:30:47;;;;;;;4.97;1.37;;;19.30;99.90;;;;;;5117012;28;20219;-85
2022/09/09 14:33:15;;;;;;;2.37;1.10;;;19.60;99.90;;;;;;5121242;28;20175;-85
2022/09/09 14:35:41;;;;;;;1.17;0.80;;;;;;;;;;5118558;28;20184;-85
2022/09/09 14:38:08;;;;;;;2.00;0.80;;;19.50;99.90;;;;;;5118652;28;20207;-82
2022/09/09 14:40:35;;;;;;;3.50;1.00;;;20.30;99.90;;;;;;5118954;28;20179;-84
2022/09/09 14:43:02;;;;;;;2.87;1.10;;;;;;;;;;5118851;28;20191;-82
2022/09/09 14:45:28;;;;;;;3.60;0.83;;;20.80;99.90;;;;;;5116880;28;20211;-83
2022/09/09 14:47:54;;;;;;;3.83;0.80;;;;;;;;;;5117355;28;20515;-84
2022/09/09 14:50:21;;;;;;;2.93;1.47;;;23.40;99.90;;;;;;5117654;28;20172;-83
2022/09/09 14:52:48;;;;;;;1.70;1.10;;;;;;;;;;5118717;28;20176;-83
2022/09/09 14:55:15;;;;;;;2.20;1.00;;;23.90;99.90;;;;;;5117247;28;20187;-84
2022/09/09 14:57:41;;;;;;;1.87;0.90;;;23.30;99.90;;;;;;5117234;28;20207;-82
2022/09/09 15:00:10;;;;;;;1.80;0.97;;;23.20;99.90;;;;;;5116769;28;20642;-85
2022/09/09 15:02:36;;;;;;;2.60;1.00;;;23.50;99.90;;;;;;5118194;28;20198;-84
2022/09/09 15:05:02;;;;;;;1.60;0.97;;;23.70;99.90;;;;;;5118303;28;20251;-84
2022/09/09 15:07:28;;;;;;;2.27;1.07;;;23.60;99.90;;;;;;5116497;28;20178;-84
2022/09/09 15:09:54;;;;;;;1.30;0.90;;;23.40;99.90;;;;;;5117795;28;20175;-85
2022/09/09 15:12:21;;;;;;;4.53;1.53;;;23.10;99.90;;;;;;5116993;28;20661;-84
2022/09/09 15:14:47;;;;;;;1.60;0.90;;;23.20;99.90;;;;;;5119274;28;20174;-83
2022/09/09 15:17:13;;;;;;;1.33;0.90;;;23.30;99.90;;;;;;5118690;28;20172;-84
2022/09/09 15:19:39;;;;;;;2.73;0.90;;;23.30;99.90;;;;;;5118592;28;20198;-85
2022/09/09 15:22:07;;;;;;;2.03;1.00;;;23.30;99.90;;;;;;5118948;28;20196;-81
2022/09/09 15:24:34;;;;;;;0.80;0.70;;;23.40;99.90;;;;;;5119145;28;20210;-84
2022/09/09 15:27:01;;;;;;;1.63;0.90;;;23.30;99.90;;;;;;5118645;28;20167;-85
2022/09/09 15:29:27;;;;;;;0.93;0.80;;;23.30;99.90;;;;;;5117087;28;20176;-85
2022/09/09 15:31:56;;;;;;;1.37;0.90;;;22.70;99.90;;;;;;5117176;28;20202;-84
2022/09/09 15:34:22;;;;;;;2.03;0.87;;;;;;;;;;5117569;28;20184;-83
2022/09/09 15:36:48;;;;;;;3.50;0.90;;;22.00;99.90;;;;;;5117068;28;20183;-85
2022/09/09 15:39:16;;;;;;;1.60;0.90;;;20.60;99.90;;;;;;5116728;28;20176;-84
2022/09/09 15:41:44;;;;;;;1.67;0.80;;;20.20;99.90;;;;;;5117126;28;20272;-86
2022/09/09 15:44:12;;;;;;;3.10;1.37;;;20.00;99.90;;;;;;5118325;28;20633;-84
2022/09/09 15:46:45;;;;;;;1.63;1.00;;;19.50;99.90;;;;;;5119571;28;20220;-84
2022/09/09 15:49:12;;;;;;;2.63;1.00;;;;;;;;;;5118741;28;20171;-84
2022/09/09 15:51:43;;;;;;;2.70;1.00;;;18.90;99.90;;;;;;5118711;28;20187;-86
2022/09/09 15:54:10;;;;;;;3.83;1.10;;;18.70;99.90;;;;;;5117367;28;20175;-85
2022/09/09 15:56:36;;;;;;;1.63;0.97;;;;;;;;;;5119005;28;20186;-85
2022/09/09 15:59:03;;;;;;;2.40;1.03;;;18.60;99.90;;;;;;5118935;28;20262;-85
2022/09/09 16:01:30;;;;;;;1.83;0.97;;;18.60;99.90;;;;;;5119833;28;20230;-85
2022/09/09 16:03:57;;;;;;;1.63;0.90;;;18.50;99.90;;;;;;5119897;28;20176;-85
2022/09/09 16:06:25;;;;;;;2.80;1.20;;;18.50;99.90;;;;;;5118782;28;20237;-85
2022/09/09 16:08:52;;;;;;;2.10;0.87;;;18.30;99.90;;;;;;5118361;28;20185;-85
2022/09/09 16:11:30;;;;;;;0.70;0.70;;;18.20;99.90;;;;;;5119443;28;20191;-86
2022/09/09 16:13:57;;;;;;;2.07;0.80;;;18.20;99.90;;;;;;5118730;28;20645;-85
2022/09/09 16:16:24;;;;;;;1.67;1.00;;;18.10;99.90;;;;;;5122990;28;20185;-85
2022/09/09 16:18:52;;;;;;;1.83;1.50;;;18.00;99.90;;;;;;5125485;28;20192;-83
2022/09/09 16:21:24;;;;;;;2.03;0.73;;;18.00;99.90;;;;;;5125168;28;20228;-86
2022/09/09 16:23:53;;;;;;;1.30;0.83;;;18.00;99.90;;;;;;5126390;28;20196;-87
2022/09/09 16:26:19;;;;;;;38.23;32.37;;;17.90;99.90;;;;;;5118645;28;20568;-84
2022/09/09 16:28:49;;;;;;;4.93;2.33;;;17.90;99.90;;;;;;5120126;28;20581;-84
2022/09/09 16:31:18;;;;;;;1.53;1.07;;;17.80;99.90;;;;;;5119685;28;20672;-84
2022/09/09 16:33:46;;;;;;;5.77;1.50;;;17.80;99.90;;;;;;5115664;28;20183;-84
2022/09/09 16:36:14;;;;;;;3.07;1.20;;;17.70;99.90;;;;;;5115219;28;20250;-83
2022/09/09 16:38:40;;;;;;;1.80;0.83;;;17.70;99.90;;;;;;5114923;28;20182;-85
2022/09/09 16:41:06;;;;;;;3.90;0.90;;;17.60;99.90;;;;;;5117129;28;20305;-85
2022/09/09 16:43:34;;;;;;;3.03;0.90;;;17.60;99.90;;;;;;5119639;28;20205;-85